createdAt,value
2023-02-11T00:01:33.027Z,46.88
2023-02-11T00:04:02.464Z,46.89
2023-02-11T00:06:32.836Z,46.94
2023-02-11T00:09:01.314Z,46.69
2023-02-11T00:11:30.798Z,46.77
2023-02-11T00:14:08.099Z,46.80
2023-02-11T00:16:36.536Z,46.61
2023-02-11T00:19:06.616Z,46.68
2023-02-11T00:21:35.103Z,46.67
2023-02-11T00:24:03.682Z,46.89
2023-02-11T00:26:34.490Z,46.75
2023-02-11T00:29:03.022Z,46.87
2023-02-11T00:31:33.318Z,46.78
2023-02-11T00:34:02.122Z,46.58
2023-02-11T00:36:31.106Z,46.57
2023-02-11T00:39:00.150Z,46.57
2023-02-11T00:41:29.830Z,46.66
2023-02-11T00:44:01.882Z,46.62
2023-02-11T00:46:30.528Z,46.82
2023-02-11T00:48:58.775Z,46.80
2023-02-11T00:51:28.502Z,46.66
2023-02-11T00:53:57.952Z,46.64
2023-02-11T00:56:26.102Z,46.56
2023-02-11T00:58:54.359Z,46.63
2023-02-11T01:01:22.579Z,46.44
2023-02-11T01:03:51.423Z,46.69
2023-02-11T01:06:19.996Z,46.41
2023-02-11T01:08:48.086Z,46.73
2023-02-11T01:11:20.058Z,46.73
2023-02-11T01:13:49.647Z,46.66
2023-02-11T01:16:19.463Z,46.45
2023-02-11T01:18:48.124Z,46.48
2023-02-11T01:21:19.310Z,46.63
2023-02-11T01:23:47.697Z,46.72
2023-02-11T01:26:16.109Z,46.43
2023-02-11T01:28:44.503Z,46.26
2023-02-11T01:31:12.823Z,46.41
2023-02-11T01:33:41.235Z,46.62
2023-02-11T01:36:11.027Z,46.71
2023-02-11T01:38:41.228Z,46.35
2023-02-11T01:41:12.314Z,46.39
2023-02-11T01:43:46.318Z,46.40
2023-02-11T01:46:36.898Z,46.25
2023-02-11T01:49:10.180Z,46.21
2023-02-11T01:51:52.105Z,46.06
2023-02-11T01:54:43.313Z,46.17
2023-02-11T01:57:27.745Z,46.18
2023-02-11T02:00:08.110Z,46.37
2023-02-11T02:02:47.767Z,45.91
2023-02-11T02:05:26.360Z,46.22
2023-02-11T02:08:02.828Z,46.13
2023-02-11T02:10:31.923Z,46.09
2023-02-11T02:12:59.906Z,46.18
2023-02-11T02:15:32.366Z,45.94
2023-02-11T02:18:41.784Z,46.02
2023-02-11T02:21:41.697Z,46.12
2023-02-11T02:24:15.816Z,46.08
2023-02-11T02:27:02.778Z,46.31
2023-02-11T02:30:03.440Z,46.14
2023-02-11T02:33:21.623Z,46.14
2023-02-11T02:36:19.692Z,46.12
2023-02-11T02:38:57.333Z,45.95
2023-02-11T02:41:30.704Z,46.16
2023-02-11T02:43:59.195Z,46.08
2023-02-11T02:46:34.656Z,46.17
2023-02-11T02:49:03.945Z,46.17
2023-02-11T02:52:09.299Z,46.09
2023-02-11T02:55:01.594Z,46.04
2023-02-11T02:57:35.908Z,46.06
2023-02-11T03:00:09.920Z,45.94
2023-02-11T03:03:05.844Z,45.88
2023-02-11T03:05:55.399Z,46.09
2023-02-11T03:08:47.363Z,46.10
2023-02-11T03:11:19.011Z,45.87
2023-02-11T03:13:49.718Z,46.00
2023-02-11T03:16:23.413Z,45.88
2023-02-11T03:19:08.810Z,45.87
2023-02-11T03:21:40.245Z,46.01
2023-02-11T03:24:14.674Z,45.90
2023-02-11T03:26:52.981Z,45.86
2023-02-11T03:29:40.804Z,46.07
2023-02-11T03:32:44.186Z,46.00
2023-02-11T03:35:12.372Z,46.08
2023-02-11T03:37:52.114Z,46.06
2023-02-11T03:40:26.943Z,46.01
2023-02-11T03:43:01.136Z,46.09
2023-02-11T03:45:30.644Z,46.10
2023-02-11T03:48:16.336Z,46.05
2023-02-11T03:50:47.491Z,46.11
2023-02-11T03:53:16.482Z,45.99
2023-02-11T03:55:48.300Z,45.84
2023-02-11T03:58:17.033Z,45.90
2023-02-11T04:00:45.633Z,45.80
2023-02-11T04:03:14.290Z,45.94
2023-02-11T04:05:42.695Z,45.98
2023-02-11T04:08:11.075Z,46.02
2023-02-11T04:10:39.261Z,45.69
2023-02-11T04:13:07.349Z,45.64
2023-02-11T04:15:35.523Z,45.84
2023-02-11T04:18:05.131Z,45.59
2023-02-11T04:20:33.221Z,45.70
2023-02-11T04:23:01.151Z,45.80
2023-02-11T04:25:29.356Z,45.93
2023-02-11T04:27:57.681Z,45.79
2023-02-11T04:30:25.914Z,45.69
2023-02-11T04:32:54.706Z,45.62
2023-02-11T04:35:23.101Z,45.73
2023-02-11T04:37:51.264Z,45.92
2023-02-11T04:40:19.342Z,45.79
2023-02-11T04:42:47.520Z,45.71
2023-02-11T04:45:15.593Z,45.90
2023-02-11T04:47:43.682Z,45.78
2023-02-11T04:50:11.909Z,45.71
2023-02-11T04:52:40.136Z,45.74
2023-02-11T04:55:08.524Z,45.49
2023-02-11T04:57:36.735Z,45.67
2023-02-11T05:00:07.057Z,45.71
2023-02-11T05:02:34.996Z,45.68
2023-02-11T05:05:03.789Z,45.60
2023-02-11T05:07:32.126Z,45.52
2023-02-11T05:10:00.184Z,45.46
2023-02-11T05:12:28.429Z,45.56
2023-02-11T05:14:56.605Z,45.47
2023-02-11T05:17:24.580Z,45.68
2023-02-11T05:19:52.543Z,45.59
2023-02-11T05:22:22.180Z,45.24
2023-02-11T05:24:50.296Z,45.64
2023-02-11T05:27:18.297Z,45.64
2023-02-11T05:29:46.468Z,45.45
2023-02-11T05:32:14.537Z,45.58
2023-02-11T05:34:42.746Z,45.65
2023-02-11T05:37:10.846Z,45.56
2023-02-11T05:39:39.103Z,45.42
2023-02-11T05:42:07.293Z,45.60
2023-02-11T05:44:35.559Z,45.49
2023-02-11T05:47:03.835Z,45.44
2023-02-11T05:49:32.227Z,45.60
2023-02-11T05:52:00.287Z,45.73
2023-02-11T05:54:28.371Z,45.26
2023-02-11T05:56:56.659Z,45.47
2023-02-11T05:59:24.837Z,45.28
2023-02-11T06:01:52.845Z,45.53
2023-02-11T06:04:20.989Z,45.50
2023-02-11T06:06:49.056Z,45.60
2023-02-11T06:09:17.048Z,45.42
2023-02-11T06:11:45.345Z,45.23
2023-02-11T06:14:14.414Z,45.30
2023-02-11T06:16:42.692Z,45.42
2023-02-11T06:19:11.691Z,45.37
2023-02-11T06:21:44.102Z,45.52
2023-02-11T06:24:13.272Z,45.53
2023-02-11T06:26:41.352Z,45.44
2023-02-11T06:29:09.525Z,45.35
2023-02-11T06:31:39.399Z,45.68
2023-02-11T06:34:10.486Z,45.70
2023-02-11T06:36:41.187Z,45.31
2023-02-11T06:39:13.604Z,45.36
2023-02-11T06:41:41.699Z,45.60
2023-02-11T06:44:10.062Z,45.36
2023-02-11T06:46:38.157Z,45.41
2023-02-11T06:49:06.513Z,45.47
2023-02-11T06:51:34.705Z,45.34
2023-02-11T06:54:04.922Z,45.35
2023-02-11T06:56:33.716Z,45.57
2023-02-11T06:59:02.093Z,45.69
2023-02-11T07:01:30.083Z,45.77
2023-02-11T07:03:58.550Z,45.62
2023-02-11T07:06:28.224Z,45.57
2023-02-11T07:08:56.955Z,45.54
2023-02-11T07:11:28.346Z,45.70
2023-02-11T07:14:01.913Z,45.64
2023-02-11T07:16:30.479Z,45.60
2023-02-11T07:18:58.887Z,45.87
2023-02-11T07:21:27.482Z,45.74
2023-02-11T07:23:55.655Z,45.82
2023-02-11T07:26:25.880Z,45.79
2023-02-11T07:28:55.593Z,45.91
2023-02-11T07:31:28.068Z,45.76
2023-02-11T07:34:00.026Z,45.81
2023-02-11T07:36:32.112Z,45.75
2023-02-11T07:39:00.472Z,45.74
2023-02-11T07:41:28.862Z,45.65
2023-02-11T07:43:57.041Z,45.63
2023-02-11T07:46:28.018Z,45.68
2023-02-11T07:48:56.590Z,45.77
2023-02-11T07:51:30.439Z,45.79
2023-02-11T07:54:00.156Z,45.69
2023-02-11T07:56:29.070Z,45.85
2023-02-11T07:59:00.996Z,45.90
2023-02-11T08:01:30.358Z,45.81
2023-02-11T08:04:00.212Z,46.14
2023-02-11T08:06:31.881Z,45.87
2023-02-11T08:09:05.680Z,45.95
2023-02-11T08:11:33.917Z,45.89
2023-02-11T08:14:02.193Z,45.92
2023-02-11T08:16:33.386Z,45.99
2023-02-11T08:19:04.699Z,46.07
2023-02-11T08:21:32.833Z,46.17
2023-02-11T08:24:03.498Z,46.17
2023-02-11T08:26:34.754Z,46.29
2023-02-11T08:29:10.405Z,46.25
2023-02-11T08:31:41.358Z,46.37
2023-02-11T08:34:11.621Z,46.48
2023-02-11T08:36:42.035Z,46.56
2023-02-11T08:39:20.043Z,46.51
2023-02-11T08:41:51.686Z,46.64
2023-02-11T08:44:21.172Z,46.82
2023-02-11T08:46:50.678Z,46.62
2023-02-11T08:49:19.254Z,46.65
2023-02-11T08:51:47.720Z,46.80
2023-02-11T08:54:16.564Z,47.09
2023-02-11T08:56:44.724Z,46.87
2023-02-11T08:59:15.134Z,46.64
2023-02-11T09:01:44.654Z,47.00
2023-02-11T09:04:13.612Z,46.91
2023-02-11T09:06:42.056Z,46.91
2023-02-11T09:09:13.764Z,46.69
2023-02-11T09:11:44.144Z,46.70
2023-02-11T09:14:21.982Z,46.78
2023-02-11T09:16:51.650Z,46.86
2023-02-11T09:19:21.035Z,47.06
2023-02-11T09:21:49.215Z,46.96
2023-02-11T09:24:17.396Z,46.89
2023-02-11T09:26:45.494Z,47.10
2023-02-11T09:29:13.757Z,47.03
2023-02-11T09:31:41.968Z,47.24
2023-02-11T09:34:12.062Z,46.92
2023-02-11T09:36:41.621Z,47.11
2023-02-11T09:39:14.646Z,47.32
2023-02-11T09:42:08.928Z,47.40
2023-02-11T09:44:38.105Z,47.59
2023-02-11T09:47:18.069Z,47.44
2023-02-11T09:49:50.348Z,47.62
2023-02-11T09:52:45.246Z,47.65
2023-02-11T09:55:45.543Z,47.48
2023-02-11T09:58:22.966Z,47.60
2023-02-11T10:01:22.471Z,47.69
2023-02-11T10:04:19.355Z,47.63
2023-02-11T10:06:54.927Z,47.61
2023-02-11T10:09:42.637Z,47.89
2023-02-11T10:12:32.620Z,47.79
2023-02-11T10:15:17.983Z,47.79
2023-02-11T10:17:48.808Z,47.67
2023-02-11T10:20:35.633Z,47.73
2023-02-11T10:23:15.892Z,47.79
2023-02-11T10:25:47.133Z,47.75
2023-02-11T10:28:21.754Z,47.87
2023-02-11T10:31:10.256Z,47.99
2023-02-11T10:33:50.955Z,48.03
2023-02-11T10:36:21.224Z,48.19
2023-02-11T10:38:49.562Z,48.20
2023-02-11T10:41:22.980Z,48.18
2023-02-11T10:43:52.064Z,48.29
2023-02-11T10:46:27.028Z,48.28
2023-02-11T10:48:55.177Z,48.42
2023-02-11T10:51:28.587Z,48.43
2023-02-11T10:54:06.369Z,48.49
2023-02-11T10:56:37.622Z,48.60
2023-02-11T10:59:15.517Z,48.54
2023-02-11T11:01:54.393Z,48.73
2023-02-11T11:04:33.847Z,48.89
2023-02-11T11:07:23.958Z,48.91
2023-02-11T11:10:27.459Z,48.92
2023-02-11T11:12:55.634Z,49.02
2023-02-11T11:15:27.470Z,48.99
2023-02-11T11:18:21.393Z,49.02
2023-02-11T11:21:24.622Z,49.06
2023-02-11T11:23:54.950Z,49.14
2023-02-11T11:26:26.033Z,49.20
2023-02-11T11:29:08.189Z,49.16
2023-02-11T11:32:04.742Z,49.29
2023-02-11T11:34:37.283Z,49.39
2023-02-11T11:37:19.514Z,49.32
2023-02-11T11:39:58.516Z,49.33
2023-02-11T11:42:26.906Z,49.45
2023-02-11T11:45:20.148Z,49.58
2023-02-11T11:47:56.195Z,49.51
2023-02-11T11:50:45.156Z,49.48
2023-02-11T11:53:37.483Z,49.60
2023-02-11T11:56:09.983Z,49.46
2023-02-11T11:58:38.418Z,49.72
2023-02-11T12:01:21.254Z,49.49
2023-02-11T12:04:26.893Z,49.71
2023-02-11T12:07:25.950Z,49.80
2023-02-11T12:09:54.455Z,49.87
2023-02-11T12:12:34.504Z,49.82
2023-02-11T12:15:05.549Z,49.78
2023-02-11T12:18:11.081Z,49.75
2023-02-11T12:20:50.610Z,50.01
2023-02-11T12:23:38.764Z,49.91
2023-02-11T12:26:18.530Z,49.93
2023-02-11T12:29:24.901Z,50.02
2023-02-11T12:32:04.658Z,50.09
2023-02-11T12:35:07.152Z,50.02
2023-02-11T12:37:49.146Z,50.06
2023-02-11T12:40:22.036Z,50.05
2023-02-11T12:43:22.000Z,50.17
2023-02-11T12:46:28.701Z,50.18
2023-02-11T12:49:12.126Z,50.34
2023-02-11T12:52:03.737Z,50.40
2023-02-11T12:54:58.726Z,50.33
2023-02-11T12:57:31.196Z,50.48
2023-02-11T13:00:40.722Z,50.54
2023-02-11T13:03:19.835Z,50.55
2023-02-11T13:05:58.795Z,50.47
2023-02-11T13:08:42.613Z,50.53
2023-02-11T13:11:16.372Z,50.68
2023-02-11T13:13:50.216Z,50.54
2023-02-11T13:16:35.853Z,50.71
2023-02-11T13:19:14.061Z,50.58
2023-02-11T13:22:01.120Z,50.88
2023-02-11T13:24:51.399Z,51.04
2023-02-11T13:27:41.062Z,50.91
2023-02-11T13:30:29.573Z,50.97
2023-02-11T13:32:57.688Z,50.90
2023-02-11T13:35:40.362Z,50.77
2023-02-11T13:38:18.905Z,51.69
2023-02-11T13:41:04.691Z,52.09
2023-02-11T13:43:35.734Z,52.20
2023-02-11T13:46:06.802Z,52.63
2023-02-11T13:48:50.126Z,52.49
2023-02-11T13:51:34.645Z,52.70
2023-02-11T13:54:04.494Z,52.63
2023-02-11T13:56:37.042Z,52.61
2023-02-11T13:59:27.548Z,52.78
2023-02-11T14:02:36.283Z,52.85
2023-02-11T14:05:22.877Z,52.29
2023-02-11T14:08:42.077Z,52.36
2023-02-11T14:11:29.999Z,52.03
2023-02-11T14:14:25.618Z,51.76
2023-02-11T14:17:00.349Z,51.90
2023-02-11T14:19:34.821Z,51.62
2023-02-11T14:22:04.679Z,51.33
2023-02-11T14:24:32.752Z,51.17
2023-02-11T14:27:56.916Z,51.18
2023-02-11T14:30:46.690Z,51.07
2023-02-11T14:33:21.102Z,51.10
2023-02-11T14:36:05.963Z,51.00
2023-02-11T14:38:49.455Z,51.01
2023-02-11T14:41:26.877Z,50.92
2023-02-11T14:43:59.831Z,51.04
2023-02-11T14:46:30.444Z,50.98
2023-02-11T14:49:01.846Z,50.90
2023-02-11T14:51:40.350Z,50.86
2023-02-11T14:54:24.080Z,50.81
2023-02-11T14:57:17.425Z,50.85
2023-02-11T15:00:04.434Z,50.86
2023-02-11T15:02:35.835Z,51.02
2023-02-11T15:05:23.839Z,50.87
2023-02-11T15:07:55.088Z,50.91
2023-02-11T15:10:31.863Z,50.97
2023-02-11T15:13:01.492Z,50.80
2023-02-11T15:15:31.009Z,50.98
2023-02-11T15:18:02.771Z,50.85
2023-02-11T15:20:33.780Z,50.78
2023-02-11T15:23:05.056Z,51.02
2023-02-11T15:25:34.347Z,50.87
2023-02-11T15:28:21.235Z,50.96
2023-02-11T15:31:01.046Z,51.07
2023-02-11T15:33:32.958Z,50.96
2023-02-11T15:36:02.747Z,51.14
2023-02-11T15:38:31.362Z,51.12
2023-02-11T15:41:02.474Z,51.00
2023-02-11T15:43:54.210Z,51.11
2023-02-11T15:46:23.672Z,51.08
2023-02-11T15:48:55.686Z,51.10
2023-02-11T15:51:36.550Z,50.89
2023-02-11T15:54:24.091Z,50.89
2023-02-11T15:56:55.458Z,51.21
2023-02-11T15:59:32.302Z,51.19
2023-02-11T16:02:29.241Z,51.07
2023-02-11T16:05:00.181Z,51.33
2023-02-11T16:07:50.054Z,50.96
2023-02-11T16:10:23.155Z,51.01
2023-02-11T16:13:06.304Z,51.13
2023-02-11T16:15:34.458Z,51.04
2023-02-11T16:18:12.709Z,50.79
2023-02-11T16:20:41.342Z,50.97
2023-02-11T16:23:23.535Z,50.97
2023-02-11T16:26:00.004Z,50.99
2023-02-11T16:28:29.427Z,51.15
2023-02-11T16:30:59.784Z,51.20
2023-02-11T16:33:29.965Z,50.96
2023-02-11T16:36:02.135Z,50.88
2023-02-11T16:38:32.279Z,50.96
2023-02-11T16:41:00.335Z,50.96
2023-02-11T16:43:28.339Z,51.10
2023-02-11T16:45:58.744Z,51.04
2023-02-11T16:48:26.855Z,50.94
2023-02-11T16:50:55.451Z,51.32
2023-02-11T16:53:25.436Z,51.06
2023-02-11T16:55:54.237Z,50.94
2023-02-11T16:58:22.398Z,50.95
2023-02-11T17:00:51.517Z,50.99
2023-02-11T17:03:23.038Z,51.16
2023-02-11T17:05:55.686Z,50.93
2023-02-11T17:08:24.212Z,50.96
2023-02-11T17:10:52.893Z,51.18
2023-02-11T17:13:21.289Z,50.89
2023-02-11T17:15:49.713Z,50.92
2023-02-11T17:18:18.058Z,50.93
2023-02-11T17:20:46.130Z,50.99
2023-02-11T17:23:14.413Z,51.00
2023-02-11T17:25:42.691Z,50.92
2023-02-11T17:28:12.279Z,50.94
2023-02-11T17:30:43.542Z,50.84
2023-02-11T17:33:11.620Z,50.92
2023-02-11T17:35:41.067Z,50.86
2023-02-11T17:38:09.210Z,50.93
2023-02-11T17:40:37.388Z,50.81
2023-02-11T17:43:05.356Z,50.74
2023-02-11T17:45:33.558Z,51.00
2023-02-11T17:48:02.336Z,50.71
2023-02-11T17:50:30.304Z,50.87
2023-02-11T17:52:58.489Z,50.77
2023-02-11T17:55:26.572Z,50.78
2023-02-11T17:57:55.670Z,51.04
2023-02-11T18:00:24.145Z,50.99
2023-02-11T18:02:52.083Z,50.87
2023-02-11T18:05:20.845Z,50.92
2023-02-11T18:07:49.098Z,50.95
2023-02-11T18:10:17.535Z,50.80
2023-02-11T18:12:45.749Z,51.13
2023-02-11T18:15:16.891Z,51.15
2023-02-11T18:17:45.090Z,50.89
2023-02-11T18:20:13.360Z,51.26
2023-02-11T18:22:42.174Z,50.98
2023-02-11T18:25:14.724Z,51.21
2023-02-11T18:27:43.389Z,51.27
2023-02-11T18:30:16.549Z,51.01
2023-02-11T18:32:44.708Z,50.95
2023-02-11T18:35:15.121Z,51.06
2023-02-11T18:37:43.301Z,50.87
2023-02-11T18:40:13.852Z,51.06
2023-02-11T18:42:42.942Z,51.08
2023-02-11T18:45:15.056Z,50.98
2023-02-11T18:47:43.181Z,51.00
2023-02-11T18:50:13.823Z,51.17
2023-02-11T18:52:42.398Z,51.14
2023-02-11T18:55:10.908Z,51.05
2023-02-11T18:57:38.926Z,51.00
2023-02-11T19:00:10.119Z,51.25
2023-02-11T19:02:38.411Z,51.20
2023-02-11T19:05:07.152Z,51.15
2023-02-11T19:07:35.351Z,51.08
2023-02-11T19:10:05.097Z,51.11
2023-02-11T19:12:33.357Z,51.09
2023-02-11T19:15:01.336Z,51.25
2023-02-11T19:17:29.312Z,51.03
2023-02-11T19:19:57.388Z,51.16
2023-02-11T19:22:25.444Z,51.12
2023-02-11T19:24:53.429Z,51.15
2023-02-11T19:27:21.524Z,50.93
2023-02-11T19:29:49.475Z,51.40
2023-02-11T19:32:17.778Z,51.18
2023-02-11T19:34:45.712Z,51.21
2023-02-11T19:37:13.916Z,51.06
2023-02-11T19:39:43.020Z,51.29
2023-02-11T19:42:12.317Z,51.25
2023-02-11T19:44:40.603Z,51.21
2023-02-11T19:47:10.450Z,51.10
2023-02-11T19:49:38.498Z,51.31
2023-02-11T19:52:06.571Z,51.04
2023-02-11T19:54:34.711Z,51.13
2023-02-11T19:57:03.040Z,51.28
2023-02-11T19:59:31.102Z,51.38
2023-02-11T20:02:01.866Z,51.11
2023-02-11T20:04:32.286Z,51.31
2023-02-11T20:07:00.456Z,51.34
2023-02-11T20:09:29.141Z,51.19
2023-02-11T20:11:57.521Z,51.18
2023-02-11T20:14:27.903Z,51.16
2023-02-11T20:16:56.340Z,51.27
2023-02-11T20:19:24.509Z,51.28
2023-02-11T20:21:56.083Z,51.40
2023-02-11T20:24:25.626Z,51.22
2023-02-11T20:26:56.733Z,51.34
2023-02-11T20:29:25.894Z,51.26
2023-02-11T20:31:54.514Z,51.27
2023-02-11T20:34:25.158Z,51.32
2023-02-11T20:36:54.290Z,51.37
2023-02-11T20:39:24.409Z,51.23
2023-02-11T20:41:53.931Z,51.34
2023-02-11T20:44:23.199Z,51.25
2023-02-11T20:46:54.491Z,51.49
2023-02-11T20:49:24.655Z,51.40
2023-02-11T20:51:53.944Z,51.34
2023-02-11T20:54:24.393Z,51.30
2023-02-11T20:56:54.033Z,51.18
2023-02-11T20:59:24.736Z,51.34
2023-02-11T21:01:55.687Z,51.17
2023-02-11T21:04:27.784Z,51.33
2023-02-11T21:06:59.254Z,51.17
2023-02-11T21:09:30.963Z,51.39
2023-02-11T21:11:59.540Z,51.34
2023-02-11T21:14:28.648Z,51.36
2023-02-11T21:16:57.850Z,51.40
2023-02-11T21:19:25.938Z,51.40
2023-02-11T21:21:55.263Z,51.52
2023-02-11T21:24:23.926Z,51.39
2023-02-11T21:26:51.946Z,51.45
2023-02-11T21:29:20.293Z,51.38
2023-02-11T21:31:48.989Z,51.50
2023-02-11T21:34:17.363Z,51.48
2023-02-11T21:36:45.541Z,51.46
2023-02-11T21:39:13.943Z,51.37
2023-02-11T21:41:42.212Z,51.55
2023-02-11T21:44:10.398Z,51.65
2023-02-11T21:46:38.505Z,51.74
2023-02-11T21:49:06.559Z,51.50
2023-02-11T21:51:34.654Z,51.39
2023-02-11T21:54:04.015Z,51.60
2023-02-11T21:56:34.324Z,51.70
2023-02-11T21:59:02.782Z,51.66
2023-02-11T22:01:35.435Z,51.72
2023-02-11T22:04:03.808Z,51.60
2023-02-11T22:06:34.219Z,51.59
2023-02-11T22:09:06.707Z,51.77
2023-02-11T22:11:35.811Z,51.75
2023-02-11T22:14:04.116Z,51.99
2023-02-11T22:16:32.505Z,51.82
2023-02-11T22:19:02.623Z,51.74
2023-02-11T22:21:30.781Z,51.97
2023-02-11T22:23:59.048Z,51.85
2023-02-11T22:26:28.153Z,51.91
2023-02-11T22:28:56.947Z,51.82
2023-02-11T22:31:28.926Z,51.78
2023-02-11T22:33:57.958Z,51.80
2023-02-11T22:36:29.389Z,51.95
2023-02-11T22:39:01.832Z,51.94
2023-02-11T22:41:30.019Z,51.76
2023-02-11T22:43:58.388Z,51.90
2023-02-11T22:46:26.596Z,51.84
2023-02-11T22:48:55.159Z,51.83
2023-02-11T22:51:26.298Z,51.92
2023-02-11T22:53:59.507Z,51.83
2023-02-11T22:56:28.699Z,51.85
2023-02-11T22:58:59.119Z,52.01
2023-02-11T23:01:28.365Z,52.06
2023-02-11T23:03:58.645Z,51.75
2023-02-11T23:06:26.827Z,51.82
2023-02-11T23:08:55.720Z,52.12
2023-02-11T23:11:27.431Z,51.87
2023-02-11T23:13:56.280Z,52.03
2023-02-11T23:16:28.033Z,51.93
2023-02-11T23:18:58.601Z,52.19
2023-02-11T23:21:29.871Z,51.85
2023-02-11T23:24:00.516Z,52.06
2023-02-11T23:26:29.651Z,52.05
2023-02-11T23:28:59.371Z,51.94
2023-02-11T23:31:31.014Z,51.95
2023-02-11T23:33:59.301Z,52.11
2023-02-11T23:36:27.851Z,51.89
2023-02-11T23:38:55.970Z,51.84
2023-02-11T23:41:24.979Z,51.96
2023-02-11T23:43:55.162Z,52.16
2023-02-11T23:46:24.859Z,52.18
2023-02-11T23:48:53.400Z,52.01
2023-02-11T23:51:22.748Z,51.94
2023-02-11T23:53:52.735Z,52.19
2023-02-11T23:56:24.000Z,52.13
2023-02-11T23:58:54.379Z,52.10
